createdAt,value
2023-02-12T00:02:34.658Z,102066.16
2023-02-12T00:05:02.140Z,102061.31
2023-02-12T00:07:31.060Z,102060.38
2023-02-12T00:09:58.488Z,102058.97
2023-02-12T00:15:28.293Z,102057.16
2023-02-12T00:17:57.052Z,102049.91
2023-02-12T00:20:24.487Z,102048.06
2023-02-12T00:22:51.978Z,102067.44
2023-02-12T00:25:19.766Z,102059.81
2023-02-12T00:27:47.514Z,102056.94
2023-02-12T00:30:17.963Z,102062.66
2023-02-12T00:32:46.116Z,102058.63
2023-02-12T00:38:19.105Z,102064.09
2023-02-12T00:40:46.557Z,102061.75
2023-02-12T00:43:14.067Z,102065.47
2023-02-12T00:45:41.650Z,102067.75
2023-02-12T00:48:09.082Z,102068.56
2023-02-12T00:50:36.550Z,102074.50
2023-02-12T00:53:04.007Z,102064.63
2023-02-12T00:55:33.110Z,102075.00
2023-02-12T00:58:00.730Z,102075.97
2023-02-12T01:00:29.408Z,102075.03
2023-02-12T01:02:57.891Z,102073.84
2023-02-12T01:05:25.975Z,102079.28
2023-02-12T01:07:54.526Z,102072.69
2023-02-12T01:10:22.207Z,102072.91
2023-02-12T01:12:51.474Z,102071.53
2023-02-12T01:15:19.593Z,102072.59
2023-02-12T01:17:47.313Z,102082.22
2023-02-12T01:20:18.165Z,102082.56
2023-02-12T01:22:45.777Z,102084.03
2023-02-12T01:25:14.038Z,102084.38
2023-02-12T01:30:31.623Z,102082.44
2023-02-12T01:33:00.518Z,102078.09
2023-02-12T01:35:28.014Z,102095.06
2023-02-12T01:40:44.215Z,102087.25
2023-02-12T01:43:13.145Z,102086.16
2023-02-12T01:45:54.458Z,102087.88
2023-02-12T01:48:24.890Z,102090.19
2023-02-12T01:50:54.190Z,102097.06
2023-02-12T01:56:12.374Z,102089.34
2023-02-12T02:01:41.672Z,102091.69
2023-02-12T02:04:13.348Z,102091.69
2023-02-12T02:06:48.239Z,102091.78
2023-02-12T02:09:16.250Z,102086.00
2023-02-12T02:12:01.315Z,102090.34
2023-02-12T02:14:34.770Z,102085.72
2023-02-12T02:17:24.386Z,102079.03
2023-02-12T02:20:26.018Z,102077.16
2023-02-12T02:26:15.901Z,102072.97
2023-02-12T02:29:00.165Z,102087.59
2023-02-12T02:31:33.577Z,102080.56
2023-02-12T02:34:05.131Z,102079.06
2023-02-12T02:39:38.641Z,102076.16
2023-02-12T02:42:10.694Z,102075.50
2023-02-12T02:44:40.689Z,102071.91
2023-02-12T02:47:11.322Z,102067.66
2023-02-12T02:49:42.215Z,102059.63
2023-02-12T02:52:13.520Z,102064.81
2023-02-12T02:54:43.715Z,102066.22
2023-02-12T02:57:14.340Z,102062.19
2023-02-12T02:59:44.506Z,102066.22
2023-02-12T03:02:17.531Z,102066.75
2023-02-12T03:04:47.246Z,102078.91
2023-02-12T03:07:17.994Z,102072.56
2023-02-12T03:09:48.309Z,102073.00
2023-02-12T03:12:18.653Z,102069.13
2023-02-12T03:14:48.884Z,102071.06
2023-02-12T03:17:19.625Z,102075.41
2023-02-12T03:22:32.681Z,102064.72
2023-02-12T03:25:05.561Z,102062.59
2023-02-12T03:27:35.109Z,102061.00
2023-02-12T03:30:04.006Z,102066.44
2023-02-12T03:32:37.279Z,102068.66
2023-02-12T03:35:10.841Z,102067.03
2023-02-12T03:37:42.502Z,102068.06
2023-02-12T03:40:16.642Z,102066.94
2023-02-12T03:42:49.205Z,102067.59
2023-02-12T03:45:23.134Z,102076.25
2023-02-12T03:47:57.387Z,102061.72
2023-02-12T03:50:30.333Z,102066.59
2023-02-12T03:52:57.810Z,102067.16
2023-02-12T03:55:25.436Z,102067.94
2023-02-12T03:57:55.480Z,102070.94
2023-02-12T04:00:24.693Z,102071.03
2023-02-12T04:02:54.406Z,102075.50
2023-02-12T04:05:23.730Z,102076.34
2023-02-12T04:07:51.712Z,102082.00
2023-02-12T04:10:47.897Z,102088.84
2023-02-12T04:13:20.127Z,102084.38
2023-02-12T04:18:41.493Z,102098.00
2023-02-12T04:21:15.671Z,102102.13
2023-02-12T04:23:51.049Z,102099.34
2023-02-12T04:26:23.938Z,102105.59
2023-02-12T04:28:59.450Z,102109.16
2023-02-12T04:31:31.207Z,102109.97
2023-02-12T04:34:06.690Z,102119.19
2023-02-12T04:36:36.735Z,102128.09
2023-02-12T04:39:06.265Z,102128.78
2023-02-12T04:41:33.831Z,102123.69
2023-02-12T04:44:14.902Z,102132.22
2023-02-12T04:49:41.278Z,102130.88
2023-02-12T04:52:09.263Z,102132.78
2023-02-12T04:54:36.714Z,102137.47
2023-02-12T04:57:04.714Z,102127.38
2023-02-12T04:59:32.154Z,102131.81
2023-02-12T05:01:59.624Z,102131.81
2023-02-12T05:04:27.034Z,102131.50
2023-02-12T05:06:55.790Z,102131.81
2023-02-12T05:09:23.267Z,102140.97
2023-02-12T05:14:54.247Z,102135.88
2023-02-12T05:17:23.061Z,102137.34
2023-02-12T05:19:50.545Z,102141.50
2023-02-12T05:22:19.698Z,102128.09
2023-02-12T05:24:47.230Z,102135.97
2023-02-12T05:27:14.737Z,102129.16
2023-02-12T05:29:42.339Z,102129.78
2023-02-12T05:32:10.123Z,102126.91
2023-02-12T05:34:38.272Z,102130.81
2023-02-12T05:37:05.715Z,102137.59
2023-02-12T05:39:34.442Z,102122.56
2023-02-12T05:44:50.838Z,102133.91
2023-02-12T05:47:18.442Z,102128.19
2023-02-12T05:49:45.867Z,102128.72
2023-02-12T05:52:13.271Z,102133.13
2023-02-12T05:54:42.253Z,102133.63
2023-02-12T05:57:09.705Z,102132.19
2023-02-12T06:02:04.265Z,102131.94
2023-02-12T06:04:31.779Z,102132.69
2023-02-12T06:07:00.793Z,102132.69
2023-02-12T06:09:28.256Z,102132.59
2023-02-12T06:11:57.019Z,102135.25
2023-02-12T06:14:24.549Z,102127.72
2023-02-12T06:16:52.856Z,102130.28
2023-02-12T06:19:21.322Z,102126.44
2023-02-12T06:21:48.836Z,102130.69
2023-02-12T06:24:17.409Z,102129.44
2023-02-12T06:26:44.889Z,102129.84
2023-02-12T06:29:14.104Z,102129.41
2023-02-12T06:31:41.968Z,102134.50
2023-02-12T06:34:11.692Z,102127.50
2023-02-12T06:36:40.367Z,102130.25
2023-02-12T06:39:08.548Z,102138.94
2023-02-12T06:41:36.009Z,102136.09
2023-02-12T06:44:03.879Z,102142.66
2023-02-12T06:46:32.702Z,102137.75
2023-02-12T06:49:01.426Z,102144.22
2023-02-12T06:51:31.280Z,102148.16
2023-02-12T06:53:59.165Z,102146.38
2023-02-12T06:56:27.811Z,102157.38
2023-02-12T07:01:53.545Z,102164.03
2023-02-12T07:04:21.406Z,102160.56
2023-02-12T07:06:48.994Z,102162.38
2023-02-12T07:09:16.478Z,102168.06
2023-02-12T07:11:43.932Z,102179.44
2023-02-12T07:14:14.630Z,102182.00
2023-02-12T07:16:42.129Z,102180.25
2023-02-12T07:19:12.783Z,102186.41
2023-02-12T07:21:40.198Z,102188.41
2023-02-12T07:24:08.907Z,102193.19
2023-02-12T07:29:44.255Z,102201.91
2023-02-12T07:35:15.793Z,102206.41
2023-02-12T07:37:43.258Z,102218.38
2023-02-12T07:40:11.190Z,102224.03
2023-02-12T07:42:38.670Z,102212.63
2023-02-12T07:47:56.459Z,102221.94
2023-02-12T07:50:25.261Z,102222.16
2023-02-12T07:52:52.693Z,102209.44
2023-02-12T07:55:20.093Z,102225.16
2023-02-12T07:57:47.561Z,102225.69
2023-02-12T08:00:16.315Z,102228.06
2023-02-12T08:02:43.828Z,102228.91
2023-02-12T08:05:11.267Z,102231.66
2023-02-12T08:10:33.142Z,102228.41
2023-02-12T08:16:01.278Z,102238.34
2023-02-12T08:18:28.744Z,102233.63
2023-02-12T08:23:45.987Z,102233.00
2023-02-12T08:26:16.598Z,102232.34
2023-02-12T08:28:46.683Z,102241.88
2023-02-12T08:31:16.515Z,102251.66
2023-02-12T08:33:45.263Z,102248.31
2023-02-12T08:36:14.542Z,102246.47
2023-02-12T08:41:31.622Z,102252.91
2023-02-12T08:44:00.301Z,102259.78
2023-02-12T08:46:29.519Z,102252.34
2023-02-12T08:48:58.430Z,102255.31
2023-02-12T08:51:27.466Z,102256.75
2023-02-12T08:53:56.256Z,102256.97
2023-02-12T08:56:25.004Z,102252.50
2023-02-12T08:58:53.807Z,102256.16
2023-02-12T09:04:26.410Z,102265.66
2023-02-12T09:06:54.086Z,102266.78
2023-02-12T09:09:21.670Z,102265.03
2023-02-12T09:11:49.410Z,102265.94
2023-02-12T09:17:06.622Z,102268.31
2023-02-12T09:19:34.030Z,102270.31
2023-02-12T09:22:01.492Z,102276.13
2023-02-12T09:24:28.952Z,102275.16
2023-02-12T09:26:56.571Z,102274.16
2023-02-12T09:29:24.019Z,102269.00
2023-02-12T09:31:51.603Z,102277.75
2023-02-12T09:34:20.399Z,102274.50
2023-02-12T09:36:47.853Z,102280.66
2023-02-12T09:42:17.702Z,102284.22
2023-02-12T09:44:47.661Z,102282.47
2023-02-12T09:47:19.467Z,102291.22
2023-02-12T09:52:52.111Z,102296.88
2023-02-12T09:55:20.568Z,102295.22
2023-02-12T09:57:48.348Z,102293.03
2023-02-12T10:00:17.643Z,102296.00
2023-02-12T10:02:45.141Z,102289.78
2023-02-12T10:05:16.728Z,102295.59
2023-02-12T10:08:05.558Z,102295.41
2023-02-12T10:10:45.228Z,102290.03
2023-02-12T10:13:21.469Z,102292.25
2023-02-12T10:15:53.230Z,102295.50
2023-02-12T10:18:41.803Z,102292.72
2023-02-12T10:21:17.275Z,102292.22
2023-02-12T10:26:49.139Z,102300.19
2023-02-12T10:29:18.581Z,102291.09
2023-02-12T10:31:49.584Z,102302.56
2023-02-12T10:34:19.915Z,102307.59
2023-02-12T10:36:49.723Z,102299.19
2023-02-12T10:39:22.318Z,102301.59
2023-02-12T10:44:49.755Z,102293.34
2023-02-12T10:50:25.639Z,102292.00
2023-02-12T10:52:57.447Z,102292.16
2023-02-12T10:55:28.317Z,102291.25
2023-02-12T10:57:56.402Z,102282.81
2023-02-12T11:00:28.386Z,102283.53
2023-02-12T11:03:09.792Z,102289.47
2023-02-12T11:05:39.414Z,102287.84
2023-02-12T11:08:08.209Z,102280.31
2023-02-12T11:10:38.857Z,102281.97
2023-02-12T11:13:07.481Z,102277.25
2023-02-12T11:15:39.754Z,102280.78
2023-02-12T11:18:09.303Z,102270.41
2023-02-12T11:20:39.811Z,102272.88
2023-02-12T11:23:22.750Z,102280.47
2023-02-12T11:25:57.469Z,102271.41
2023-02-12T11:28:25.379Z,102273.59
2023-02-12T11:30:56.031Z,102270.19
2023-02-12T11:33:27.566Z,102267.88
2023-02-12T11:35:57.061Z,102263.94
2023-02-12T11:38:28.329Z,102262.84
2023-02-12T11:40:59.731Z,102261.97
2023-02-12T11:43:29.302Z,102261.13
2023-02-12T11:45:57.676Z,102261.94
2023-02-12T11:48:29.066Z,102266.53
2023-02-12T11:50:58.411Z,102254.34
2023-02-12T11:53:28.398Z,102255.81
2023-02-12T11:55:58.595Z,102255.91
2023-02-12T11:58:27.002Z,102259.88
2023-02-12T12:01:00.129Z,102261.94
2023-02-12T12:03:31.178Z,102247.59
2023-02-12T12:06:03.451Z,102254.34
2023-02-12T12:08:37.039Z,102252.88
2023-02-12T12:11:10.955Z,102241.75
2023-02-12T12:17:02.326Z,102248.78
2023-02-12T12:19:52.274Z,102248.78
2023-02-12T12:22:28.259Z,102245.94
2023-02-12T12:24:59.117Z,102244.88
2023-02-12T12:27:52.555Z,102240.28
2023-02-12T12:30:24.252Z,102247.50
2023-02-12T12:32:53.750Z,102241.31
2023-02-12T12:35:26.718Z,102236.97
2023-02-12T12:37:55.832Z,102234.50
2023-02-12T12:40:42.052Z,102238.44
2023-02-12T12:43:14.747Z,102235.19
2023-02-12T12:45:57.814Z,102233.63
2023-02-12T12:48:38.794Z,102234.63
2023-02-12T12:51:19.910Z,102225.88
2023-02-12T12:56:46.673Z,102222.41
2023-02-12T12:59:40.762Z,102213.88
2023-02-12T13:02:47.165Z,102209.66
2023-02-12T13:05:30.699Z,102216.56
2023-02-12T13:08:03.672Z,102208.72
2023-02-12T13:10:35.463Z,102208.47
2023-02-12T13:13:14.593Z,102203.63
2023-02-12T13:15:46.655Z,102214.41
2023-02-12T13:18:23.036Z,102209.56
2023-02-12T13:20:52.803Z,102198.94
2023-02-12T13:23:29.289Z,102192.03
2023-02-12T13:26:02.959Z,102201.00
2023-02-12T13:28:35.203Z,102202.19
2023-02-12T13:31:16.267Z,102200.13
2023-02-12T13:33:56.148Z,102204.50
2023-02-12T13:36:23.590Z,102197.00
2023-02-12T13:38:57.450Z,102201.72
2023-02-12T13:41:28.868Z,102204.00
2023-02-12T13:44:07.335Z,102205.00
2023-02-12T13:46:41.907Z,102205.34
2023-02-12T13:49:19.913Z,102202.53
2023-02-12T13:51:49.269Z,102203.22
2023-02-12T13:57:30.282Z,102200.97
2023-02-12T13:59:59.921Z,102200.56
2023-02-12T14:02:47.446Z,102195.97
2023-02-12T14:05:32.984Z,102199.44
2023-02-12T14:11:06.442Z,102195.88
2023-02-12T14:13:37.567Z,102197.34
2023-02-12T14:16:21.577Z,102193.78
2023-02-12T14:18:49.153Z,102195.31
2023-02-12T14:21:37.841Z,102198.16
2023-02-12T14:24:42.681Z,102195.97
2023-02-12T14:27:25.881Z,102193.44
2023-02-12T14:30:29.142Z,102199.06
2023-02-12T14:33:11.752Z,102201.00
2023-02-12T14:35:40.326Z,102194.56
2023-02-12T14:38:47.494Z,102194.44
2023-02-12T14:41:34.195Z,102190.88
2023-02-12T14:44:43.287Z,102189.97
2023-02-12T14:47:55.900Z,102190.94
2023-02-12T14:50:27.808Z,102191.69
2023-02-12T14:53:01.264Z,102194.63
2023-02-12T14:55:33.893Z,102186.03
2023-02-12T14:58:04.430Z,102189.72
2023-02-12T15:03:34.693Z,102185.63
2023-02-12T15:06:05.922Z,102192.69
2023-02-12T15:08:37.965Z,102192.22
2023-02-12T15:11:14.777Z,102190.41
2023-02-12T15:13:49.565Z,102183.34
2023-02-12T15:16:24.125Z,102183.53
2023-02-12T15:18:55.834Z,102190.78
2023-02-12T15:21:27.537Z,102194.94
2023-02-12T15:24:02.168Z,102198.31
2023-02-12T15:26:30.868Z,102191.78
2023-02-12T15:28:58.412Z,102192.13
2023-02-12T15:31:29.625Z,102194.91
2023-02-12T15:36:56.131Z,102187.66
2023-02-12T15:39:24.816Z,102185.63
2023-02-12T15:44:52.088Z,102180.31
2023-02-12T15:47:24.589Z,102185.84
2023-02-12T15:49:52.054Z,102189.72
2023-02-12T15:52:24.612Z,102184.88
2023-02-12T15:54:52.197Z,102189.63
2023-02-12T15:57:22.840Z,102191.19
2023-02-12T15:59:51.521Z,102183.59
2023-02-12T16:05:22.335Z,102192.28
2023-02-12T16:07:51.397Z,102193.38
2023-02-12T16:10:20.267Z,102186.56
2023-02-12T16:16:04.641Z,102185.50
2023-02-12T16:18:32.231Z,102191.59
2023-02-12T16:21:05.183Z,102198.41
2023-02-12T16:23:36.011Z,102187.66
2023-02-12T16:26:04.235Z,102188.00
2023-02-12T16:28:35.337Z,102191.41
2023-02-12T16:31:11.390Z,102192.38
2023-02-12T16:33:45.236Z,102192.41
2023-02-12T16:40:07.634Z,102190.56
2023-02-12T16:42:35.083Z,102195.66
2023-02-12T16:45:02.642Z,102193.31
2023-02-12T16:47:30.102Z,102193.72
2023-02-12T16:50:00.111Z,102194.16
2023-02-12T16:52:33.745Z,102194.75
2023-02-12T16:55:02.649Z,102190.16
2023-02-12T16:57:30.059Z,102189.16
2023-02-12T16:59:57.479Z,102197.94
2023-02-12T17:02:24.891Z,102195.94
2023-02-12T17:04:56.739Z,102197.94
2023-02-12T17:07:28.073Z,102195.97
2023-02-12T17:09:55.801Z,102200.56
2023-02-12T17:12:24.863Z,102200.84
2023-02-12T17:14:53.922Z,102205.03
2023-02-12T17:20:24.351Z,102201.94
2023-02-12T17:22:53.402Z,102215.19
2023-02-12T17:25:21.659Z,102211.50
2023-02-12T17:27:50.427Z,102207.16
2023-02-12T17:30:24.037Z,102214.97
2023-02-12T17:33:03.084Z,102221.06
2023-02-12T17:35:30.654Z,102218.47
2023-02-12T17:37:58.215Z,102223.50
2023-02-12T17:40:25.725Z,102225.81
2023-02-12T17:42:54.689Z,102233.16
2023-02-12T17:48:18.334Z,102236.69
2023-02-12T17:50:45.850Z,102232.59
2023-02-12T17:53:13.319Z,102236.25
2023-02-12T17:55:41.699Z,102233.53
2023-02-12T17:58:10.681Z,102245.44
2023-02-12T18:00:38.104Z,102235.25
2023-02-12T18:03:05.515Z,102242.88
2023-02-12T18:05:32.980Z,102235.22
2023-02-12T18:08:02.229Z,102236.47
2023-02-12T18:10:53.759Z,102228.53
2023-02-12T18:13:22.816Z,102228.44
2023-02-12T18:18:53.386Z,102227.66
2023-02-12T18:21:21.255Z,102221.44
2023-02-12T18:23:48.714Z,102229.16
2023-02-12T18:26:18.382Z,102219.09
2023-02-12T18:31:45.763Z,102223.19
2023-02-12T18:34:13.255Z,102224.41
2023-02-12T18:36:40.670Z,102223.59
2023-02-12T18:39:08.162Z,102227.97
2023-02-12T18:41:36.195Z,102222.44
2023-02-12T18:44:05.171Z,102226.75
2023-02-12T18:46:32.994Z,102223.44
2023-02-12T18:49:14.240Z,102221.13
2023-02-12T18:51:41.651Z,102223.19
2023-02-12T18:54:11.952Z,102226.34
2023-02-12T18:56:43.436Z,102229.63
2023-02-12T18:59:13.115Z,102229.41
2023-02-12T19:01:40.921Z,102229.31
2023-02-12T19:04:11.096Z,102222.88
2023-02-12T19:06:41.621Z,102223.72
2023-02-12T19:09:09.921Z,102224.50
2023-02-12T19:11:37.378Z,102230.91
2023-02-12T19:17:03.242Z,102222.97
2023-02-12T19:19:30.713Z,102221.28
2023-02-12T19:21:59.477Z,102225.69
2023-02-12T19:24:35.017Z,102217.75
2023-02-12T19:27:12.069Z,102226.25
2023-02-12T19:29:39.485Z,102220.03
2023-02-12T19:32:06.951Z,102217.56
2023-02-12T19:37:38.609Z,102230.03
2023-02-12T19:40:07.225Z,102224.31
2023-02-12T19:42:34.683Z,102226.34
2023-02-12T19:45:02.110Z,102227.13
2023-02-12T19:47:29.511Z,102227.75
2023-02-12T19:49:56.932Z,102232.75
2023-02-12T19:52:24.330Z,102231.66
2023-02-12T19:54:53.274Z,102227.53
2023-02-12T19:57:20.743Z,102229.06
2023-02-12T19:59:48.201Z,102223.94
2023-02-12T20:02:15.704Z,102226.53
2023-02-12T20:04:43.202Z,102224.69
2023-02-12T20:07:10.776Z,102226.94
2023-02-12T20:09:38.200Z,102227.97
2023-02-12T20:12:07.432Z,102220.78
2023-02-12T20:14:35.523Z,102228.56
2023-02-12T20:17:02.944Z,102237.84
2023-02-12T20:19:33.754Z,102228.72
2023-02-12T20:22:03.102Z,102232.53
2023-02-12T20:24:32.472Z,102229.66
2023-02-12T20:27:01.571Z,102226.16
2023-02-12T20:29:30.361Z,102234.53
2023-02-12T20:31:58.117Z,102235.78
2023-02-12T20:34:25.615Z,102238.88
2023-02-12T20:36:53.815Z,102235.34
2023-02-12T20:39:21.497Z,102240.03
2023-02-12T20:42:01.938Z,102233.34
2023-02-12T20:44:30.951Z,102236.97
2023-02-12T20:46:58.355Z,102234.97
2023-02-12T20:49:25.964Z,102239.84
2023-02-12T20:51:53.434Z,102238.13
2023-02-12T20:54:20.937Z,102238.97
2023-02-12T20:56:49.918Z,102224.44
2023-02-12T20:59:18.257Z,102224.44
2023-02-12T21:01:47.413Z,102233.56
2023-02-12T21:04:16.502Z,102226.88
2023-02-12T21:06:44.749Z,102230.69
2023-02-12T21:09:13.618Z,102223.19
2023-02-12T21:11:42.441Z,102224.78
2023-02-12T21:14:26.034Z,102230.59
2023-02-12T21:16:45.090Z,102237.41
2023-02-12T21:19:14.719Z,102233.56
2023-02-12T21:21:44.718Z,102229.03
2023-02-12T21:24:15.723Z,102221.44
2023-02-12T21:26:43.742Z,102228.13
2023-02-12T21:29:11.249Z,102224.88
2023-02-12T21:31:40.970Z,102226.97
2023-02-12T21:34:09.996Z,102231.97
2023-02-12T21:36:41.073Z,102221.50
2023-02-12T21:39:10.478Z,102232.41
2023-02-12T21:41:39.887Z,102225.28
2023-02-12T21:44:08.778Z,102219.13
2023-02-12T21:46:37.093Z,102220.97
2023-02-12T21:52:08.064Z,102219.84
2023-02-12T21:57:33.240Z,102222.22
2023-02-12T22:00:00.955Z,102221.38
2023-02-12T22:02:28.465Z,102222.47
2023-02-12T22:04:55.971Z,102215.66
2023-02-12T22:07:24.728Z,102217.97
2023-02-12T22:09:52.153Z,102216.59
2023-02-12T22:12:19.598Z,102218.94
2023-02-12T22:14:47.036Z,102210.44
2023-02-12T22:17:14.447Z,102201.22
2023-02-12T22:19:42.821Z,102206.94
2023-02-12T22:22:10.250Z,102211.25
2023-02-12T22:24:38.990Z,102212.53
2023-02-12T22:27:06.402Z,102208.81
2023-02-12T22:29:33.836Z,102206.38
2023-02-12T22:32:01.424Z,102210.41
2023-02-12T22:34:28.923Z,102212.53
2023-02-12T22:36:56.351Z,102206.72
2023-02-12T22:39:23.805Z,102205.88
2023-02-12T22:41:52.625Z,102207.13
2023-02-12T22:44:21.330Z,102202.56
2023-02-12T22:46:49.201Z,102205.09
2023-02-12T22:49:16.832Z,102197.72
2023-02-12T22:51:45.822Z,102205.66
2023-02-12T22:54:15.131Z,102205.03
2023-02-12T22:56:42.915Z,102207.81
2023-02-12T22:59:12.776Z,102211.31
2023-02-12T23:01:40.292Z,102209.50
2023-02-12T23:04:07.945Z,102218.72
2023-02-12T23:06:35.418Z,102218.06
2023-02-12T23:09:04.870Z,102220.00
2023-02-12T23:14:22.795Z,102206.00
2023-02-12T23:16:50.342Z,102201.97
2023-02-12T23:19:17.870Z,102199.00
2023-02-12T23:21:45.362Z,102202.06
2023-02-12T23:24:16.017Z,102195.06
2023-02-12T23:26:43.747Z,102198.38
2023-02-12T23:32:15.590Z,102191.66
2023-02-12T23:34:43.166Z,102187.13
2023-02-12T23:37:10.595Z,102193.53
2023-02-12T23:42:41.001Z,102190.28
2023-02-12T23:45:09.871Z,102191.97
2023-02-12T23:47:38.600Z,102190.69
2023-02-12T23:50:07.259Z,102197.34
2023-02-12T23:55:23.256Z,102189.31
2023-02-12T23:57:50.891Z,102185.31
